sensor_id;sensor_type;location;lat;lon;timestamp;P1;durP1;ratioP1;P2;durP2;ratioP2
11699;SDS011;5906;51.660;6.674;2023-04-25T00:01:40;12.37;;;6.70;;
11699;SDS011;5906;51.660;6.674;2023-04-25T00:04:07;14.27;;;7.07;;
11699;SDS011;5906;51.660;6.674;2023-04-25T00:06:34;12.13;;;6.53;;
11699;SDS011;5906;51.660;6.674;2023-04-25T00:09:05;18.70;;;6.30;;
11699;SDS011;5906;51.660;6.674;2023-04-25T00:11:37;17.17;;;6.70;;
11699;SDS011;5906;51.660;6.674;2023-04-25T00:14:04;11.87;;;6.27;;
11699;SDS011;5906;51.660;6.674;2023-04-25T00:16:33;19.23;;;7.70;;
11699;SDS011;5906;51.660;6.674;2023-04-25T00:19:01;11.30;;;7.90;;
11699;SDS011;5906;51.660;6.674;2023-04-25T00:21:29;9.90;;;6.07;;
11699;SDS011;5906;51.660;6.674;2023-04-25T00:23:58;12.53;;;6.63;;
11699;SDS011;5906;51.660;6.674;2023-04-25T00:26:25;18.20;;;6.90;;
11699;SDS011;5906;51.660;6.674;2023-04-25T00:28:53;16.87;;;7.60;;
11699;SDS011;5906;51.660;6.674;2023-04-25T00:31:20;14.07;;;6.93;;
11699;SDS011;5906;51.660;6.674;2023-04-25T00:33:47;19.40;;;7.77;;
11699;SDS011;5906;51.660;6.674;2023-04-25T00:36:15;18.90;;;8.07;;
11699;SDS011;5906;51.660;6.674;2023-04-25T00:38:43;11.97;;;6.20;;
11699;SDS011;5906;51.660;6.674;2023-04-25T00:41:11;11.90;;;6.03;;
11699;SDS011;5906;51.660;6.674;2023-04-25T00:43:41;17.07;;;6.47;;
11699;SDS011;5906;51.660;6.674;2023-04-25T00:46:10;19.73;;;6.77;;
11699;SDS011;5906;51.660;6.674;2023-04-25T00:48:40;17.73;;;7.03;;
11699;SDS011;5906;51.660;6.674;2023-04-25T00:51:07;14.40;;;6.60;;
11699;SDS011;5906;51.660;6.674;2023-04-25T00:53:34;13.67;;;6.50;;
11699;SDS011;5906;51.660;6.674;2023-04-25T00:56:01;8.23;;;5.97;;
11699;SDS011;5906;51.660;6.674;2023-04-25T00:58:34;18.73;;;6.50;;
11699;SDS011;5906;51.660;6.674;2023-04-25T01:01:01;12.47;;;5.93;;
11699;SDS011;5906;51.660;6.674;2023-04-25T01:03:29;12.00;;;5.90;;
11699;SDS011;5906;51.660;6.674;2023-04-25T01:05:59;15.70;;;6.63;;
11699;SDS011;5906;51.660;6.674;2023-04-25T01:08:26;16.97;;;7.57;;
11699;SDS011;5906;51.660;6.674;2023-04-25T01:10:53;9.90;;;5.97;;
11699;SDS011;5906;51.660;6.674;2023-04-25T01:13:24;22.20;;;8.00;;
11699;SDS011;5906;51.660;6.674;2023-04-25T01:15:50;25.80;;;6.90;;
11699;SDS011;5906;51.660;6.674;2023-04-25T01:18:18;19.00;;;6.07;;
11699;SDS011;5906;51.660;6.674;2023-04-25T01:20:46;12.50;;;6.00;;
11699;SDS011;5906;51.660;6.674;2023-04-25T01:23:15;17.40;;;6.80;;
11699;SDS011;5906;51.660;6.674;2023-04-25T01:25:42;15.80;;;6.73;;
11699;SDS011;5906;51.660;6.674;2023-04-25T01:28:09;17.30;;;6.80;;
11699;SDS011;5906;51.660;6.674;2023-04-25T01:30:37;15.80;;;7.47;;
11699;SDS011;5906;51.660;6.674;2023-04-25T01:33:04;10.00;;;6.33;;
11699;SDS011;5906;51.660;6.674;2023-04-25T01:35:32;10.73;;;6.40;;
11699;SDS011;5906;51.660;6.674;2023-04-25T01:37:59;8.40;;;5.67;;
11699;SDS011;5906;51.660;6.674;2023-04-25T01:40:27;11.20;;;6.60;;
11699;SDS011;5906;51.660;6.674;2023-04-25T01:42:56;15.33;;;7.60;;
11699;SDS011;5906;51.660;6.674;2023-04-25T01:45:23;16.03;;;6.00;;
11699;SDS011;5906;51.660;6.674;2023-04-25T01:47:50;21.47;;;6.13;;
11699;SDS011;5906;51.660;6.674;2023-04-25T01:50:18;16.33;;;6.40;;
11699;SDS011;5906;51.660;6.674;2023-04-25T01:52:45;15.00;;;7.03;;
11699;SDS011;5906;51.660;6.674;2023-04-25T01:55:12;12.50;;;7.17;;
11699;SDS011;5906;51.660;6.674;2023-04-25T01:57:39;14.00;;;6.27;;
11699;SDS011;5906;51.660;6.674;2023-04-25T02:00:06;13.40;;;6.43;;
11699;SDS011;5906;51.660;6.674;2023-04-25T02:02:34;14.43;;;7.37;;
11699;SDS011;5906;51.660;6.674;2023-04-25T02:05:02;12.67;;;7.37;;
11699;SDS011;5906;51.660;6.674;2023-04-25T02:07:30;12.33;;;6.90;;
11699;SDS011;5906;51.660;6.674;2023-04-25T02:09:57;12.20;;;6.20;;
11699;SDS011;5906;51.660;6.674;2023-04-25T02:12:23;18.33;;;6.07;;
11699;SDS011;5906;51.660;6.674;2023-04-25T02:14:52;11.70;;;7.03;;
11699;SDS011;5906;51.660;6.674;2023-04-25T02:17:20;12.43;;;7.30;;
11699;SDS011;5906;51.660;6.674;2023-04-25T02:19:47;11.70;;;6.00;;
11699;SDS011;5906;51.660;6.674;2023-04-25T02:22:14;24.60;;;6.50;;
11699;SDS011;5906;51.660;6.674;2023-04-25T02:24:41;19.67;;;6.73;;
11699;SDS011;5906;51.660;6.674;2023-04-25T02:27:08;17.53;;;6.47;;
11699;SDS011;5906;51.660;6.674;2023-04-25T02:29:35;16.37;;;6.67;;
11699;SDS011;5906;51.660;6.674;2023-04-25T02:32:02;14.37;;;7.50;;
11699;SDS011;5906;51.660;6.674;2023-04-25T02:34:29;11.97;;;6.27;;
11699;SDS011;5906;51.660;6.674;2023-04-25T02:36:56;12.77;;;6.27;;
11699;SDS011;5906;51.660;6.674;2023-04-25T02:39:23;19.30;;;6.23;;
11699;SDS011;5906;51.660;6.674;2023-04-25T02:41:51;20.57;;;7.07;;
11699;SDS011;5906;51.660;6.674;2023-04-25T02:44:19;9.43;;;6.47;;
11699;SDS011;5906;51.660;6.674;2023-04-25T02:46:46;14.13;;;6.40;;
11699;SDS011;5906;51.660;6.674;2023-04-25T02:49:13;13.87;;;6.03;;
11699;SDS011;5906;51.660;6.674;2023-04-25T02:51:41;15.50;;;6.73;;
11699;SDS011;5906;51.660;6.674;2023-04-25T02:54:07;11.90;;;6.43;;
11699;SDS011;5906;51.660;6.674;2023-04-25T02:56:35;12.20;;;6.30;;
11699;SDS011;5906;51.660;6.674;2023-04-25T02:59:02;14.27;;;6.73;;
11699;SDS011;5906;51.660;6.674;2023-04-25T03:01:28;20.10;;;7.10;;
11699;SDS011;5906;51.660;6.674;2023-04-25T03:03:55;17.40;;;7.13;;
11699;SDS011;5906;51.660;6.674;2023-04-25T03:06:22;17.33;;;6.50;;
11699;SDS011;5906;51.660;6.674;2023-04-25T03:08:49;10.33;;;6.17;;
11699;SDS011;5906;51.660;6.674;2023-04-25T03:11:16;15.90;;;6.43;;
11699;SDS011;5906;51.660;6.674;2023-04-25T03:13:43;14.60;;;6.30;;
11699;SDS011;5906;51.660;6.674;2023-04-25T03:16:10;18.30;;;6.40;;
11699;SDS011;5906;51.660;6.674;2023-04-25T03:18:37;16.80;;;6.93;;
11699;SDS011;5906;51.660;6.674;2023-04-25T03:21:04;17.03;;;6.00;;
11699;SDS011;5906;51.660;6.674;2023-04-25T03:23:31;14.00;;;7.40;;
11699;SDS011;5906;51.660;6.674;2023-04-25T03:25:58;15.60;;;6.40;;
11699;SDS011;5906;51.660;6.674;2023-04-25T03:28:25;15.10;;;7.20;;
11699;SDS011;5906;51.660;6.674;2023-04-25T03:30:52;16.40;;;7.30;;
11699;SDS011;5906;51.660;6.674;2023-04-25T03:33:20;20.40;;;7.27;;
11699;SDS011;5906;51.660;6.674;2023-04-25T03:35:47;13.33;;;6.30;;
11699;SDS011;5906;51.660;6.674;2023-04-25T03:38:14;12.80;;;6.63;;
11699;SDS011;5906;51.660;6.674;2023-04-25T03:40:41;14.23;;;6.70;;
11699;SDS011;5906;51.660;6.674;2023-04-25T03:43:08;20.50;;;8.00;;
11699;SDS011;5906;51.660;6.674;2023-04-25T03:45:35;24.77;;;7.90;;
11699;SDS011;5906;51.660;6.674;2023-04-25T03:48:02;17.63;;;8.30;;
11699;SDS011;5906;51.660;6.674;2023-04-25T03:50:29;14.00;;;6.67;;
11699;SDS011;5906;51.660;6.674;2023-04-25T03:52:56;17.00;;;7.40;;
11699;SDS011;5906;51.660;6.674;2023-04-25T03:55:23;19.30;;;6.80;;
11699;SDS011;5906;51.660;6.674;2023-04-25T03:57:50;13.37;;;6.50;;
11699;SDS011;5906;51.660;6.674;2023-04-25T04:00:17;13.93;;;7.07;;
11699;SDS011;5906;51.660;6.674;2023-04-25T04:02:45;20.50;;;8.17;;
11699;SDS011;5906;51.660;6.674;2023-04-25T04:05:12;17.80;;;7.13;;
11699;SDS011;5906;51.660;6.674;2023-04-25T04:07:39;17.13;;;7.90;;
11699;SDS011;5906;51.660;6.674;2023-04-25T04:10:06;18.00;;;7.60;;
11699;SDS011;5906;51.660;6.674;2023-04-25T04:12:34;21.83;;;7.50;;
11699;SDS011;5906;51.660;6.674;2023-04-25T04:15:02;14.40;;;6.83;;
11699;SDS011;5906;51.660;6.674;2023-04-25T04:17:32;13.23;;;6.90;;
11699;SDS011;5906;51.660;6.674;2023-04-25T04:19:59;12.97;;;7.70;;
11699;SDS011;5906;51.660;6.674;2023-04-25T04:22:26;15.20;;;8.00;;
11699;SDS011;5906;51.660;6.674;2023-04-25T04:24:53;19.00;;;7.53;;
11699;SDS011;5906;51.660;6.674;2023-04-25T04:27:21;15.10;;;7.00;;
11699;SDS011;5906;51.660;6.674;2023-04-25T04:29:48;19.33;;;7.57;;
11699;SDS011;5906;51.660;6.674;2023-04-25T04:32:17;17.53;;;8.30;;
11699;SDS011;5906;51.660;6.674;2023-04-25T04:34:44;15.30;;;6.93;;
11699;SDS011;5906;51.660;6.674;2023-04-25T04:37:10;13.40;;;6.60;;
11699;SDS011;5906;51.660;6.674;2023-04-25T04:39:39;17.50;;;6.80;;
11699;SDS011;5906;51.660;6.674;2023-04-25T04:42:07;20.10;;;7.33;;
11699;SDS011;5906;51.660;6.674;2023-04-25T04:44:34;14.50;;;7.03;;
11699;SDS011;5906;51.660;6.674;2023-04-25T04:47:01;29.90;;;8.27;;
11699;SDS011;5906;51.660;6.674;2023-04-25T04:49:32;15.70;;;6.70;;
11699;SDS011;5906;51.660;6.674;2023-04-25T04:51:59;27.83;;;7.37;;
11699;SDS011;5906;51.660;6.674;2023-04-25T04:54:27;14.50;;;7.70;;
11699;SDS011;5906;51.660;6.674;2023-04-25T04:56:54;24.43;;;7.83;;
11699;SDS011;5906;51.660;6.674;2023-04-25T04:59:21;19.07;;;7.83;;
11699;SDS011;5906;51.660;6.674;2023-04-25T05:01:48;15.13;;;7.70;;
11699;SDS011;5906;51.660;6.674;2023-04-25T05:04:15;19.13;;;8.20;;
11699;SDS011;5906;51.660;6.674;2023-04-25T05:06:42;15.33;;;6.60;;
11699;SDS011;5906;51.660;6.674;2023-04-25T05:09:13;13.17;;;7.60;;
11699;SDS011;5906;51.660;6.674;2023-04-25T05:11:41;14.10;;;7.33;;
11699;SDS011;5906;51.660;6.674;2023-04-25T05:14:08;19.40;;;8.80;;
11699;SDS011;5906;51.660;6.674;2023-04-25T05:16:35;15.27;;;7.90;;
11699;SDS011;5906;51.660;6.674;2023-04-25T05:19:02;17.53;;;7.80;;
11699;SDS011;5906;51.660;6.674;2023-04-25T05:21:29;10.90;;;6.67;;
11699;SDS011;5906;51.660;6.674;2023-04-25T05:23:57;12.40;;;6.60;;
11699;SDS011;5906;51.660;6.674;2023-04-25T05:26:24;11.50;;;6.80;;
11699;SDS011;5906;51.660;6.674;2023-04-25T05:28:51;27.80;;;9.00;;
11699;SDS011;5906;51.660;6.674;2023-04-25T05:31:18;22.10;;;7.73;;
11699;SDS011;5906;51.660;6.674;2023-04-25T05:33:45;13.87;;;7.10;;
11699;SDS011;5906;51.660;6.674;2023-04-25T05:36:13;23.97;;;7.43;;
11699;SDS011;5906;51.660;6.674;2023-04-25T05:38:40;13.80;;;7.40;;
11699;SDS011;5906;51.660;6.674;2023-04-25T05:41:07;23.80;;;7.67;;
11699;SDS011;5906;51.660;6.674;2023-04-25T05:43:34;22.03;;;6.73;;
11699;SDS011;5906;51.660;6.674;2023-04-25T05:46:01;9.93;;;6.43;;
11699;SDS011;5906;51.660;6.674;2023-04-25T05:48:28;11.60;;;5.97;;
11699;SDS011;5906;51.660;6.674;2023-04-25T05:50:55;17.00;;;10.23;;
11699;SDS011;5906;51.660;6.674;2023-04-25T05:53:22;15.47;;;9.30;;
11699;SDS011;5906;51.660;6.674;2023-04-25T05:55:49;19.47;;;9.47;;
11699;SDS011;5906;51.660;6.674;2023-04-25T05:58:16;25.57;;;8.47;;
11699;SDS011;5906;51.660;6.674;2023-04-25T06:00:43;20.80;;;8.90;;
11699;SDS011;5906;51.660;6.674;2023-04-25T06:03:10;15.27;;;8.63;;
11699;SDS011;5906;51.660;6.674;2023-04-25T06:05:37;34.77;;;10.80;;
11699;SDS011;5906;51.660;6.674;2023-04-25T06:08:04;16.37;;;10.43;;
11699;SDS011;5906;51.660;6.674;2023-04-25T06:10:31;17.43;;;10.00;;
11699;SDS011;5906;51.660;6.674;2023-04-25T06:12:58;16.27;;;7.80;;
11699;SDS011;5906;51.660;6.674;2023-04-25T06:15:25;13.23;;;6.00;;
11699;SDS011;5906;51.660;6.674;2023-04-25T06:17:54;12.33;;;5.20;;
11699;SDS011;5906;51.660;6.674;2023-04-25T06:20:22;14.93;;;6.00;;
11699;SDS011;5906;51.660;6.674;2023-04-25T06:22:50;16.27;;;5.53;;
11699;SDS011;5906;51.660;6.674;2023-04-25T06:25:18;14.13;;;6.30;;
11699;SDS011;5906;51.660;6.674;2023-04-25T06:27:45;13.90;;;5.77;;
11699;SDS011;5906;51.660;6.674;2023-04-25T06:30:12;9.67;;;5.60;;
11699;SDS011;5906;51.660;6.674;2023-04-25T06:32:39;12.23;;;5.60;;
11699;SDS011;5906;51.660;6.674;2023-04-25T06:35:06;15.73;;;5.37;;
11699;SDS011;5906;51.660;6.674;2023-04-25T06:37:33;9.63;;;5.67;;
11699;SDS011;5906;51.660;6.674;2023-04-25T06:40:00;16.30;;;6.57;;
11699;SDS011;5906;51.660;6.674;2023-04-25T06:42:27;13.33;;;6.27;;
11699;SDS011;5906;51.660;6.674;2023-04-25T06:44:54;12.57;;;5.80;;
11699;SDS011;5906;51.660;6.674;2023-04-25T06:47:21;14.57;;;6.30;;
11699;SDS011;5906;51.660;6.674;2023-04-25T06:49:49;21.47;;;6.33;;
11699;SDS011;5906;51.660;6.674;2023-04-25T06:52:16;13.60;;;5.63;;
11699;SDS011;5906;51.660;6.674;2023-04-25T06:54:44;13.50;;;6.53;;
11699;SDS011;5906;51.660;6.674;2023-04-25T06:57:11;10.57;;;5.27;;
11699;SDS011;5906;51.660;6.674;2023-04-25T06:59:39;12.47;;;5.50;;
11699;SDS011;5906;51.660;6.674;2023-04-25T07:02:06;15.77;;;6.47;;
11699;SDS011;5906;51.660;6.674;2023-04-25T07:04:32;17.10;;;6.90;;
11699;SDS011;5906;51.660;6.674;2023-04-25T07:07:00;8.30;;;5.00;;
11699;SDS011;5906;51.660;6.674;2023-04-25T07:09:29;7.63;;;4.73;;
11699;SDS011;5906;51.660;6.674;2023-04-25T07:11:56;19.33;;;6.23;;
11699;SDS011;5906;51.660;6.674;2023-04-25T07:14:23;17.50;;;4.80;;
11699;SDS011;5906;51.660;6.674;2023-04-25T07:16:50;15.17;;;4.70;;
11699;SDS011;5906;51.660;6.674;2023-04-25T07:19:17;12.87;;;5.00;;
11699;SDS011;5906;51.660;6.674;2023-04-25T07:21:44;17.33;;;4.30;;
11699;SDS011;5906;51.660;6.674;2023-04-25T07:24:11;6.90;;;3.60;;
11699;SDS011;5906;51.660;6.674;2023-04-25T07:26:38;6.93;;;4.33;;
11699;SDS011;5906;51.660;6.674;2023-04-25T07:29:05;15.70;;;5.77;;
11699;SDS011;5906;51.660;6.674;2023-04-25T07:31:32;14.80;;;4.30;;
11699;SDS011;5906;51.660;6.674;2023-04-25T07:33:59;9.57;;;4.43;;
11699;SDS011;5906;51.660;6.674;2023-04-25T07:36:27;14.07;;;5.07;;
11699;SDS011;5906;51.660;6.674;2023-04-25T07:38:55;12.20;;;4.00;;
11699;SDS011;5906;51.660;6.674;2023-04-25T07:41:22;9.93;;;4.77;;
11699;SDS011;5906;51.660;6.674;2023-04-25T07:43:48;8.00;;;3.97;;
11699;SDS011;5906;51.660;6.674;2023-04-25T07:46:15;13.73;;;5.77;;
11699;SDS011;5906;51.660;6.674;2023-04-25T07:48:42;26.30;;;4.93;;
11699;SDS011;5906;51.660;6.674;2023-04-25T07:51:09;15.17;;;5.00;;
11699;SDS011;5906;51.660;6.674;2023-04-25T07:53:36;11.63;;;5.03;;
11699;SDS011;5906;51.660;6.674;2023-04-25T07:56:04;11.20;;;4.57;;
11699;SDS011;5906;51.660;6.674;2023-04-25T07:58:32;7.40;;;4.33;;
11699;SDS011;5906;51.660;6.674;2023-04-25T08:00:59;11.07;;;3.90;;
11699;SDS011;5906;51.660;6.674;2023-04-25T08:03:26;11.27;;;3.97;;
11699;SDS011;5906;51.660;6.674;2023-04-25T08:05:53;17.10;;;4.73;;
11699;SDS011;5906;51.660;6.674;2023-04-25T08:08:21;14.70;;;5.10;;
11699;SDS011;5906;51.660;6.674;2023-04-25T08:10:48;6.60;;;3.70;;
11699;SDS011;5906;51.660;6.674;2023-04-25T08:13:15;9.83;;;3.70;;
11699;SDS011;5906;51.660;6.674;2023-04-25T08:15:42;9.70;;;3.40;;
11699;SDS011;5906;51.660;6.674;2023-04-25T08:18:09;10.47;;;4.50;;
11699;SDS011;5906;51.660;6.674;2023-04-25T08:20:36;21.53;;;3.53;;
11699;SDS011;5906;51.660;6.674;2023-04-25T08:23:03;14.27;;;4.00;;
11699;SDS011;5906;51.660;6.674;2023-04-25T08:25:30;8.33;;;3.63;;
11699;SDS011;5906;51.660;6.674;2023-04-25T08:27:57;12.23;;;3.40;;
11699;SDS011;5906;51.660;6.674;2023-04-25T08:30:25;10.10;;;3.40;;
11699;SDS011;5906;51.660;6.674;2023-04-25T08:32:53;14.20;;;3.10;;
11699;SDS011;5906;51.660;6.674;2023-04-25T08:35:20;6.90;;;3.10;;
11699;SDS011;5906;51.660;6.674;2023-04-25T08:37:47;14.43;;;3.37;;
11699;SDS011;5906;51.660;6.674;2023-04-25T08:40:15;5.47;;;2.67;;
11699;SDS011;5906;51.660;6.674;2023-04-25T08:42:42;11.27;;;2.97;;
11699;SDS011;5906;51.660;6.674;2023-04-25T08:45:09;8.80;;;2.93;;
11699;SDS011;5906;51.660;6.674;2023-04-25T08:47:38;11.50;;;2.70;;
11699;SDS011;5906;51.660;6.674;2023-04-25T08:50:06;12.97;;;2.90;;
11699;SDS011;5906;51.660;6.674;2023-04-25T08:52:37;10.80;;;2.73;;
11699;SDS011;5906;51.660;6.674;2023-04-25T08:55:10;17.50;;;2.47;;
11699;SDS011;5906;51.660;6.674;2023-04-25T08:57:40;6.20;;;2.77;;
11699;SDS011;5906;51.660;6.674;2023-04-25T09:00:12;7.97;;;2.50;;
11699;SDS011;5906;51.660;6.674;2023-04-25T09:02:39;8.30;;;2.20;;
11699;SDS011;5906;51.660;6.674;2023-04-25T09:05:09;16.73;;;2.83;;
11699;SDS011;5906;51.660;6.674;2023-04-25T09:07:38;5.50;;;2.30;;
11699;SDS011;5906;51.660;6.674;2023-04-25T09:10:05;11.57;;;2.70;;
11699;SDS011;5906;51.660;6.674;2023-04-25T09:12:33;10.77;;;2.90;;
11699;SDS011;5906;51.660;6.674;2023-04-25T09:15:06;8.67;;;2.50;;
11699;SDS011;5906;51.660;6.674;2023-04-25T09:17:45;2.13;;;1.80;;
11699;SDS011;5906;51.660;6.674;2023-04-25T09:20:12;5.77;;;2.90;;
11699;SDS011;5906;51.660;6.674;2023-04-25T09:22:40;4.17;;;2.30;;
11699;SDS011;5906;51.660;6.674;2023-04-25T09:25:09;7.60;;;2.37;;
11699;SDS011;5906;51.660;6.674;2023-04-25T09:27:48;6.10;;;2.57;;
11699;SDS011;5906;51.660;6.674;2023-04-25T09:30:28;5.63;;;2.10;;
11699;SDS011;5906;51.660;6.674;2023-04-25T09:32:57;7.10;;;2.13;;
11699;SDS011;5906;51.660;6.674;2023-04-25T09:35:32;9.07;;;2.50;;
11699;SDS011;5906;51.660;6.674;2023-04-25T09:38:08;11.97;;;3.17;;
11699;SDS011;5906;51.660;6.674;2023-04-25T09:40:41;11.90;;;2.30;;
11699;SDS011;5906;51.660;6.674;2023-04-25T09:43:21;5.83;;;2.17;;
11699;SDS011;5906;51.660;6.674;2023-04-25T09:45:49;5.27;;;3.10;;
11699;SDS011;5906;51.660;6.674;2023-04-25T09:48:18;11.60;;;2.60;;
11699;SDS011;5906;51.660;6.674;2023-04-25T09:51:08;8.33;;;3.07;;
11699;SDS011;5906;51.660;6.674;2023-04-25T09:53:41;5.37;;;2.80;;
11699;SDS011;5906;51.660;6.674;2023-04-25T09:56:10;10.27;;;3.03;;
11699;SDS011;5906;51.660;6.674;2023-04-25T09:58:39;9.60;;;2.90;;
11699;SDS011;5906;51.660;6.674;2023-04-25T10:01:08;5.53;;;2.80;;
11699;SDS011;5906;51.660;6.674;2023-04-25T10:03:37;4.73;;;3.00;;
11699;SDS011;5906;51.660;6.674;2023-04-25T10:06:07;8.73;;;3.07;;
11699;SDS011;5906;51.660;6.674;2023-04-25T10:08:38;5.13;;;2.63;;
11699;SDS011;5906;51.660;6.674;2023-04-25T10:11:06;6.77;;;2.63;;
11699;SDS011;5906;51.660;6.674;2023-04-25T10:13:34;2.57;;;2.37;;
11699;SDS011;5906;51.660;6.674;2023-04-25T10:16:02;5.40;;;2.93;;
11699;SDS011;5906;51.660;6.674;2023-04-25T10:18:31;4.90;;;3.00;;
11699;SDS011;5906;51.660;6.674;2023-04-25T10:21:03;9.67;;;3.07;;
11699;SDS011;5906;51.660;6.674;2023-04-25T10:23:32;5.30;;;2.60;;
11699;SDS011;5906;51.660;6.674;2023-04-25T10:26:02;4.83;;;2.60;;
11699;SDS011;5906;51.660;6.674;2023-04-25T10:28:29;4.43;;;2.50;;
11699;SDS011;5906;51.660;6.674;2023-04-25T10:31:27;6.60;;;2.63;;
11699;SDS011;5906;51.660;6.674;2023-04-25T10:33:57;6.33;;;3.27;;
11699;SDS011;5906;51.660;6.674;2023-04-25T10:36:26;8.70;;;3.00;;
11699;SDS011;5906;51.660;6.674;2023-04-25T10:38:58;4.60;;;2.67;;
11699;SDS011;5906;51.660;6.674;2023-04-25T10:41:45;4.07;;;3.27;;
11699;SDS011;5906;51.660;6.674;2023-04-25T10:44:14;4.37;;;2.53;;
11699;SDS011;5906;51.660;6.674;2023-04-25T10:46:42;4.13;;;2.63;;
11699;SDS011;5906;51.660;6.674;2023-04-25T10:49:28;13.20;;;3.30;;
11699;SDS011;5906;51.660;6.674;2023-04-25T10:52:11;5.40;;;2.37;;
11699;SDS011;5906;51.660;6.674;2023-04-25T10:54:48;3.30;;;2.17;;
11699;SDS011;5906;51.660;6.674;2023-04-25T10:57:31;3.30;;;2.20;;
11699;SDS011;5906;51.660;6.674;2023-04-25T11:02:41;5.07;;;2.27;;
11699;SDS011;5906;51.660;6.674;2023-04-25T11:05:26;4.90;;;2.27;;
11699;SDS011;5906;51.660;6.674;2023-04-25T11:08:03;7.57;;;2.20;;
11699;SDS011;5906;51.660;6.674;2023-04-25T11:10:40;4.33;;;2.30;;
11699;SDS011;5906;51.660;6.674;2023-04-25T11:13:08;7.33;;;2.57;;
11699;SDS011;5906;51.660;6.674;2023-04-25T11:15:35;7.60;;;2.23;;
11699;SDS011;5906;51.660;6.674;2023-04-25T11:18:04;4.77;;;2.30;;
11699;SDS011;5906;51.660;6.674;2023-04-25T11:20:31;4.20;;;2.00;;
11699;SDS011;5906;51.660;6.674;2023-04-25T11:22:58;4.30;;;2.10;;
11699;SDS011;5906;51.660;6.674;2023-04-25T11:25:29;5.63;;;2.50;;
11699;SDS011;5906;51.660;6.674;2023-04-25T11:27:57;4.67;;;2.30;;
11699;SDS011;5906;51.660;6.674;2023-04-25T11:30:26;4.07;;;2.30;;
11699;SDS011;5906;51.660;6.674;2023-04-25T11:32:55;5.40;;;2.40;;
11699;SDS011;5906;51.660;6.674;2023-04-25T11:35:22;2.80;;;1.97;;
11699;SDS011;5906;51.660;6.674;2023-04-25T11:37:51;6.63;;;2.80;;
11699;SDS011;5906;51.660;6.674;2023-04-25T11:40:18;10.60;;;2.37;;
11699;SDS011;5906;51.660;6.674;2023-04-25T11:42:46;3.33;;;1.90;;
11699;SDS011;5906;51.660;6.674;2023-04-25T11:45:13;7.10;;;2.17;;
11699;SDS011;5906;51.660;6.674;2023-04-25T11:47:41;6.60;;;2.50;;
11699;SDS011;5906;51.660;6.674;2023-04-25T11:50:08;9.67;;;2.40;;
11699;SDS011;5906;51.660;6.674;2023-04-25T11:55:07;3.03;;;2.73;;
11699;SDS011;5906;51.660;6.674;2023-04-25T11:57:40;3.63;;;2.37;;
11699;SDS011;5906;51.660;6.674;2023-04-25T12:00:12;2.80;;;2.30;;
11699;SDS011;5906;51.660;6.674;2023-04-25T12:02:45;6.53;;;2.20;;
11699;SDS011;5906;51.660;6.674;2023-04-25T12:05:14;2.10;;;1.70;;
11699;SDS011;5906;51.660;6.674;2023-04-25T12:07:58;5.70;;;1.70;;
11699;SDS011;5906;51.660;6.674;2023-04-25T12:10:37;16.97;;;2.93;;
11699;SDS011;5906;51.660;6.674;2023-04-25T12:15:54;4.73;;;2.40;;
11699;SDS011;5906;51.660;6.674;2023-04-25T12:18:23;7.57;;;2.87;;
11699;SDS011;5906;51.660;6.674;2023-04-25T12:20:53;2.90;;;2.00;;
11699;SDS011;5906;51.660;6.674;2023-04-25T12:23:27;6.53;;;2.70;;
11699;SDS011;5906;51.660;6.674;2023-04-25T12:25:55;9.53;;;2.20;;
11699;SDS011;5906;51.660;6.674;2023-04-25T12:28:24;7.40;;;2.43;;
11699;SDS011;5906;51.660;6.674;2023-04-25T12:33:20;3.20;;;2.53;;
11699;SDS011;5906;51.660;6.674;2023-04-25T12:35:48;6.67;;;2.60;;
11699;SDS011;5906;51.660;6.674;2023-04-25T12:40:52;3.97;;;2.13;;
11699;SDS011;5906;51.660;6.674;2023-04-25T12:43:20;4.70;;;2.90;;
11699;SDS011;5906;51.660;6.674;2023-04-25T12:45:51;15.13;;;2.47;;
11699;SDS011;5906;51.660;6.674;2023-04-25T12:48:19;7.57;;;2.67;;
11699;SDS011;5906;51.660;6.674;2023-04-25T12:50:47;3.57;;;2.10;;
11699;SDS011;5906;51.660;6.674;2023-04-25T12:53:16;12.00;;;2.90;;
11699;SDS011;5906;51.660;6.674;2023-04-25T12:55:43;6.10;;;2.83;;
11699;SDS011;5906;51.660;6.674;2023-04-25T12:58:15;4.73;;;2.57;;
11699;SDS011;5906;51.660;6.674;2023-04-25T13:00:44;3.83;;;1.97;;
11699;SDS011;5906;51.660;6.674;2023-04-25T13:03:11;2.43;;;1.80;;
11699;SDS011;5906;51.660;6.674;2023-04-25T13:05:39;2.60;;;1.70;;
11699;SDS011;5906;51.660;6.674;2023-04-25T13:08:07;1.83;;;1.43;;
11699;SDS011;5906;51.660;6.674;2023-04-25T13:10:34;4.90;;;1.80;;
11699;SDS011;5906;51.660;6.674;2023-04-25T13:13:02;3.20;;;2.10;;
11699;SDS011;5906;51.660;6.674;2023-04-25T13:15:29;4.07;;;1.90;;
11699;SDS011;5906;51.660;6.674;2023-04-25T13:17:56;3.20;;;1.80;;
11699;SDS011;5906;51.660;6.674;2023-04-25T13:20:23;3.93;;;1.93;;
11699;SDS011;5906;51.660;6.674;2023-04-25T13:22:51;3.40;;;1.90;;
11699;SDS011;5906;51.660;6.674;2023-04-25T13:25:17;4.43;;;1.80;;
11699;SDS011;5906;51.660;6.674;2023-04-25T13:27:45;2.10;;;1.80;;
11699;SDS011;5906;51.660;6.674;2023-04-25T13:30:12;4.57;;;1.60;;
11699;SDS011;5906;51.660;6.674;2023-04-25T13:32:40;2.73;;;1.73;;
11699;SDS011;5906;51.660;6.674;2023-04-25T13:35:08;3.27;;;1.60;;
11699;SDS011;5906;51.660;6.674;2023-04-25T13:37:36;4.03;;;1.70;;
11699;SDS011;5906;51.660;6.674;2023-04-25T13:40:05;3.40;;;1.63;;
11699;SDS011;5906;51.660;6.674;2023-04-25T13:42:35;1.80;;;1.60;;
11699;SDS011;5906;51.660;6.674;2023-04-25T13:45:03;3.80;;;2.00;;
11699;SDS011;5906;51.660;6.674;2023-04-25T13:47:30;1.97;;;1.60;;
11699;SDS011;5906;51.660;6.674;2023-04-25T13:49:58;2.53;;;1.93;;
11699;SDS011;5906;51.660;6.674;2023-04-25T13:52:25;2.57;;;1.80;;
11699;SDS011;5906;51.660;6.674;2023-04-25T13:54:53;4.57;;;2.20;;
11699;SDS011;5906;51.660;6.674;2023-04-25T13:57:20;5.37;;;2.23;;
11699;SDS011;5906;51.660;6.674;2023-04-25T13:59:47;3.33;;;1.93;;
11699;SDS011;5906;51.660;6.674;2023-04-25T14:02:14;4.37;;;2.50;;
11699;SDS011;5906;51.660;6.674;2023-04-25T14:04:41;5.20;;;2.30;;
11699;SDS011;5906;51.660;6.674;2023-04-25T14:07:08;8.00;;;2.60;;
11699;SDS011;5906;51.660;6.674;2023-04-25T14:09:37;7.43;;;2.17;;
11699;SDS011;5906;51.660;6.674;2023-04-25T14:12:04;4.73;;;2.40;;
11699;SDS011;5906;51.660;6.674;2023-04-25T14:14:32;7.60;;;2.47;;
11699;SDS011;5906;51.660;6.674;2023-04-25T14:16:59;5.30;;;2.37;;
11699;SDS011;5906;51.660;6.674;2023-04-25T14:19:27;6.90;;;2.23;;
11699;SDS011;5906;51.660;6.674;2023-04-25T14:21:55;3.00;;;2.40;;
11699;SDS011;5906;51.660;6.674;2023-04-25T14:24:22;6.17;;;2.70;;
11699;SDS011;5906;51.660;6.674;2023-04-25T14:26:49;5.40;;;2.40;;
11699;SDS011;5906;51.660;6.674;2023-04-25T14:29:16;5.70;;;2.60;;
11699;SDS011;5906;51.660;6.674;2023-04-25T14:31:43;5.83;;;2.20;;
11699;SDS011;5906;51.660;6.674;2023-04-25T14:34:11;2.63;;;1.87;;
11699;SDS011;5906;51.660;6.674;2023-04-25T14:36:38;7.33;;;2.37;;
11699;SDS011;5906;51.660;6.674;2023-04-25T14:39:05;6.73;;;2.83;;
11699;SDS011;5906;51.660;6.674;2023-04-25T14:41:32;4.90;;;2.30;;
11699;SDS011;5906;51.660;6.674;2023-04-25T14:44:02;4.37;;;2.03;;
11699;SDS011;5906;51.660;6.674;2023-04-25T14:46:29;8.13;;;2.10;;
11699;SDS011;5906;51.660;6.674;2023-04-25T14:48:57;11.10;;;2.20;;
11699;SDS011;5906;51.660;6.674;2023-04-25T14:51:24;5.90;;;2.10;;
11699;SDS011;5906;51.660;6.674;2023-04-25T14:53:52;4.70;;;2.33;;
11699;SDS011;5906;51.660;6.674;2023-04-25T14:56:20;6.60;;;2.20;;
11699;SDS011;5906;51.660;6.674;2023-04-25T14:58:47;2.37;;;2.10;;
11699;SDS011;5906;51.660;6.674;2023-04-25T15:01:14;5.83;;;2.13;;
11699;SDS011;5906;51.660;6.674;2023-04-25T15:03:42;5.37;;;2.57;;
11699;SDS011;5906;51.660;6.674;2023-04-25T15:06:09;4.87;;;1.93;;
11699;SDS011;5906;51.660;6.674;2023-04-25T15:08:36;2.23;;;1.97;;
11699;SDS011;5906;51.660;6.674;2023-04-25T15:11:03;6.90;;;2.60;;
11699;SDS011;5906;51.660;6.674;2023-04-25T15:13:31;4.03;;;2.10;;